createdAt,value
2019-04-28T00:01:24.267Z,2.90
2019-04-28T00:03:52.986Z,3.90
2019-04-28T00:06:21.654Z,4.40
2019-04-28T00:08:51.795Z,3.87
2019-04-28T00:11:21.769Z,3.73
2019-04-28T00:13:51.829Z,4.30
2019-04-28T00:16:22.833Z,3.30
2019-04-28T00:18:51.719Z,3.30
2019-04-28T00:21:31.934Z,4.37
2019-04-28T00:24:11.524Z,4.10
2019-04-28T00:26:47.694Z,3.80
2019-04-28T00:29:16.383Z,3.23
2019-04-28T00:31:45.063Z,3.40
2019-04-28T00:34:13.775Z,4.73
2019-04-28T00:36:44.239Z,3.83
2019-04-28T00:39:12.943Z,3.83
2019-04-28T00:41:42.172Z,3.70
2019-04-28T00:44:11.974Z,4.00
2019-04-28T00:46:42.634Z,4.50
2019-04-28T00:49:11.830Z,4.10
2019-04-28T00:51:41.532Z,2.93
2019-04-28T00:54:12.127Z,3.90
2019-04-28T00:56:41.818Z,3.13
2019-04-28T00:59:11.965Z,3.33
2019-04-28T01:01:45.246Z,3.60
2019-04-28T01:04:13.935Z,3.53
2019-04-28T01:06:43.031Z,3.33
2019-04-28T01:09:12.078Z,3.03
2019-04-28T01:11:41.496Z,4.43
2019-04-28T01:14:11.490Z,2.20
2019-04-28T01:17:00.593Z,2.70
2019-04-28T01:19:36.822Z,4.00
2019-04-28T01:22:10.394Z,3.10
2019-04-28T01:24:40.386Z,5.10
2019-04-28T01:27:27.125Z,2.70
2019-04-28T01:30:07.608Z,4.03
2019-04-28T01:32:30.724Z,3.10
2019-04-28T01:34:59.871Z,3.20
2019-04-28T01:37:29.589Z,3.47
2019-04-28T01:39:59.680Z,3.90
2019-04-28T01:42:30.127Z,3.63
2019-04-28T01:45:00.638Z,3.20
2019-04-28T01:47:30.566Z,3.23
2019-04-28T01:50:01.731Z,3.83
2019-04-28T01:52:30.375Z,3.60
2019-04-28T01:55:00.448Z,3.40
2019-04-28T01:57:29.887Z,3.53
2019-04-28T01:59:59.786Z,2.90
2019-04-28T02:02:30.051Z,2.87
2019-04-28T02:04:59.964Z,3.70
2019-04-28T02:07:30.703Z,3.57
2019-04-28T02:10:00.723Z,3.60
2019-04-28T02:12:30.435Z,3.57
2019-04-28T02:15:00.899Z,3.30
2019-04-28T02:17:30.628Z,4.50
2019-04-28T02:20:00.728Z,3.40
2019-04-28T02:22:32.169Z,3.63
2019-04-28T02:25:01.284Z,4.00
2019-04-28T02:27:30.285Z,3.53
2019-04-28T02:30:00.067Z,3.43
2019-04-28T02:32:30.980Z,3.80
2019-04-28T02:35:01.148Z,4.00
2019-04-28T02:37:30.544Z,3.70
2019-04-28T02:40:02.819Z,3.43
2019-04-28T02:42:30.896Z,3.50
2019-04-28T02:45:00.726Z,3.57
2019-04-28T02:47:31.559Z,3.57
2019-04-28T02:50:04.373Z,3.40
2019-04-28T02:52:46.387Z,2.97
2019-04-28T02:55:15.069Z,3.43
2019-04-28T02:57:43.774Z,3.23
2019-04-28T03:00:12.674Z,3.33
2019-04-28T03:02:41.776Z,3.10
2019-04-28T03:05:11.619Z,4.03
2019-04-28T03:07:41.088Z,3.67
2019-04-28T03:10:10.953Z,4.13
2019-04-28T03:12:41.408Z,3.87
2019-04-28T03:15:10.719Z,4.50
2019-04-28T03:17:40.661Z,3.37
2019-04-28T03:20:11.013Z,4.33
2019-04-28T03:22:40.766Z,3.20
2019-04-28T03:25:11.630Z,3.47
2019-04-28T03:27:41.898Z,3.53
2019-04-28T03:30:33.245Z,3.73
2019-04-28T03:33:10.996Z,3.07
2019-04-28T03:35:32.567Z,2.87
2019-04-28T03:38:01.444Z,4.17
2019-04-28T03:40:33.419Z,4.63
2019-04-28T03:43:03.120Z,3.90
2019-04-28T03:45:35.552Z,3.53
2019-04-28T03:48:04.432Z,3.30
2019-04-28T03:50:33.143Z,2.63
2019-04-28T03:53:01.856Z,3.20
2019-04-28T03:55:31.715Z,3.70
2019-04-28T03:58:01.128Z,3.40
2019-04-28T04:00:31.150Z,5.27
2019-04-28T04:03:00.930Z,3.40
2019-04-28T04:05:30.622Z,3.57
2019-04-28T04:08:00.837Z,4.10
2019-04-28T04:10:40.545Z,3.53
2019-04-28T04:13:11.132Z,4.53
2019-04-28T04:15:54.457Z,3.13
2019-04-28T04:18:25.467Z,2.83
2019-04-28T04:20:54.201Z,3.40
2019-04-28T04:23:23.547Z,3.80
2019-04-28T04:25:52.462Z,2.97
2019-04-28T04:28:21.310Z,3.30
2019-04-28T04:30:50.781Z,3.93
2019-04-28T04:33:20.812Z,3.40
2019-04-28T04:35:51.683Z,3.57
2019-04-28T04:38:21.735Z,3.53
2019-04-28T04:40:51.546Z,2.73
2019-04-28T04:43:23.011Z,3.00
2019-04-28T04:45:52.530Z,2.67
2019-04-28T04:48:21.704Z,3.20
2019-04-28T04:50:51.038Z,4.00
2019-04-28T04:53:20.791Z,3.30
2019-04-28T04:55:50.524Z,3.40
2019-04-28T04:58:21.356Z,2.80
2019-04-28T05:01:07.926Z,4.90
2019-04-28T05:03:39.727Z,2.30
2019-04-28T05:06:26.442Z,4.30
2019-04-28T05:08:55.138Z,4.87
2019-04-28T05:11:23.808Z,3.70
2019-04-28T05:13:52.475Z,3.60
2019-04-28T05:16:21.171Z,3.20
2019-04-28T05:18:49.974Z,3.50
2019-04-28T05:21:19.222Z,2.40
2019-04-28T05:23:51.069Z,3.10
2019-04-28T05:26:23.232Z,3.60
2019-04-28T05:28:53.400Z,3.37
2019-04-28T05:31:24.311Z,2.60
2019-04-28T05:33:52.644Z,3.20
2019-04-28T05:36:23.323Z,2.90
2019-04-28T05:38:52.023Z,3.30
2019-04-28T05:41:20.727Z,4.00
2019-04-28T05:43:50.454Z,4.17
2019-04-28T05:46:19.707Z,2.53
2019-04-28T05:48:52.737Z,2.30
2019-04-28T05:51:29.913Z,4.23
2019-04-28T05:54:00.286Z,3.13
2019-04-28T05:56:30.528Z,2.60
2019-04-28T05:59:00.990Z,3.50
2019-04-28T06:01:47.677Z,3.50
2019-04-28T06:04:19.843Z,3.70
2019-04-28T06:06:49.990Z,3.00
2019-04-28T06:09:20.366Z,3.00
2019-04-28T06:11:49.598Z,4.53
2019-04-28T06:14:19.889Z,4.33
2019-04-28T06:16:50.580Z,4.33
2019-04-28T06:19:20.174Z,4.70
2019-04-28T06:21:49.053Z,3.30
2019-04-28T06:24:17.722Z,3.07
2019-04-28T06:26:46.430Z,3.37
2019-04-28T06:29:15.104Z,3.27
2019-04-28T06:31:43.803Z,3.67
2019-04-28T06:34:12.495Z,4.23
2019-04-28T06:36:41.190Z,3.40
2019-04-28T06:39:10.325Z,3.50
2019-04-28T06:41:39.221Z,3.57
2019-04-28T06:44:07.874Z,4.07
2019-04-28T06:46:36.588Z,3.90
2019-04-28T06:49:05.572Z,2.90
2019-04-28T06:51:34.568Z,3.67
2019-04-28T06:54:03.240Z,2.90
2019-04-28T06:56:31.937Z,3.93
2019-04-28T06:59:00.612Z,2.80
2019-04-28T07:01:29.527Z,3.43
2019-04-28T07:03:58.332Z,3.63
2019-04-28T07:06:27.078Z,2.67
2019-04-28T07:08:55.758Z,2.50
2019-04-28T07:11:24.466Z,2.40
2019-04-28T07:13:53.184Z,2.50
2019-04-28T07:16:21.908Z,2.90
2019-04-28T07:18:50.623Z,2.20
2019-04-28T07:21:32.943Z,3.27
2019-04-28T07:24:01.646Z,2.40
2019-04-28T07:26:30.379Z,2.20
2019-04-28T07:28:59.136Z,4.10
2019-04-28T07:31:27.878Z,3.10
2019-04-28T07:33:56.608Z,2.17
2019-04-28T07:36:25.454Z,2.20
2019-04-28T07:38:54.255Z,4.30
2019-04-28T07:41:23.170Z,2.47
2019-04-28T07:43:51.869Z,2.83
2019-04-28T07:46:20.544Z,2.80
2019-04-28T07:48:49.256Z,3.20
2019-04-28T07:51:20.217Z,2.50
2019-04-28T07:53:53.535Z,2.83
2019-04-28T07:56:22.215Z,2.43
2019-04-28T07:58:50.923Z,2.47
2019-04-28T08:01:19.816Z,2.90
2019-04-28T08:03:49.545Z,3.63
2019-04-28T08:06:19.093Z,3.20
2019-04-28T08:08:47.810Z,2.97
2019-04-28T08:11:16.485Z,3.30
2019-04-28T08:13:45.400Z,4.13
2019-04-28T08:16:14.070Z,3.60
2019-04-28T08:18:42.790Z,5.03
2019-04-28T08:21:11.469Z,4.90
2019-04-28T08:23:47.080Z,4.63
2019-04-28T08:26:10.750Z,5.07
2019-04-28T08:28:39.574Z,4.90
2019-04-28T08:31:10.245Z,4.10
2019-04-28T08:33:40.489Z,9.60
2019-04-28T08:36:09.196Z,4.40
2019-04-28T08:38:37.887Z,5.43
2019-04-28T08:41:06.788Z,5.50
2019-04-28T08:43:35.489Z,5.17
2019-04-28T08:46:04.163Z,5.50
2019-04-28T08:48:33.180Z,7.00
2019-04-28T08:51:01.851Z,6.80
2019-04-28T08:53:30.660Z,6.90
2019-04-28T08:55:59.342Z,6.13
2019-04-28T08:58:28.033Z,5.67
2019-04-28T09:00:56.739Z,6.97
2019-04-28T09:03:25.518Z,7.47
2019-04-28T09:05:54.336Z,6.10
2019-04-28T09:08:23.178Z,5.87
2019-04-28T09:10:51.901Z,6.83
2019-04-28T09:13:20.603Z,6.00
2019-04-28T09:15:49.295Z,7.13
2019-04-28T09:18:18.069Z,6.73
2019-04-28T09:20:46.736Z,5.53
2019-04-28T09:23:15.429Z,7.60
2019-04-28T09:25:44.120Z,6.70
2019-04-28T09:28:12.807Z,6.07
2019-04-28T09:30:41.471Z,8.47
2019-04-28T09:33:10.176Z,7.10
2019-04-28T09:35:38.864Z,6.53
2019-04-28T09:38:07.553Z,6.83
2019-04-28T09:40:36.299Z,6.57
2019-04-28T09:43:09.354Z,5.90
2019-04-28T09:45:39.597Z,8.30
2019-04-28T09:48:08.476Z,5.73
2019-04-28T09:50:37.136Z,6.70
2019-04-28T09:53:05.802Z,5.50
2019-04-28T09:55:34.603Z,6.73
2019-04-28T09:58:03.273Z,5.27
2019-04-28T10:00:31.934Z,5.60
2019-04-28T10:03:00.654Z,5.67
2019-04-28T10:05:29.330Z,5.77
2019-04-28T10:07:58.061Z,4.93
2019-04-28T10:10:26.760Z,4.33
2019-04-28T10:12:55.540Z,4.80
2019-04-28T10:15:24.405Z,5.00
2019-04-28T10:17:53.100Z,3.97
2019-04-28T10:20:22.481Z,4.20
2019-04-28T10:22:51.167Z,3.20
2019-04-28T10:25:21.264Z,2.57
2019-04-28T10:27:50.201Z,3.53
2019-04-28T10:30:18.971Z,3.23
2019-04-28T10:32:47.926Z,2.90
2019-04-28T10:35:16.931Z,2.50
2019-04-28T10:37:45.758Z,2.73
2019-04-28T10:40:36.968Z,5.30
2019-04-28T10:43:05.736Z,4.73
2019-04-28T10:45:47.954Z,3.40
2019-04-28T10:48:16.630Z,2.60
2019-04-28T10:50:45.311Z,3.13
2019-04-28T10:53:13.999Z,2.60
2019-04-28T10:55:42.774Z,3.27
2019-04-28T10:58:11.738Z,3.20
2019-04-28T11:00:41.547Z,3.23
2019-04-28T11:03:10.228Z,3.50
2019-04-28T11:05:45.934Z,3.43
2019-04-28T11:08:24.856Z,4.23
2019-04-28T11:10:54.053Z,3.37
2019-04-28T11:13:24.893Z,3.70
2019-04-28T11:15:53.589Z,2.63
2019-04-28T11:18:22.266Z,2.33
2019-04-28T11:20:50.953Z,2.73
2019-04-28T11:23:19.634Z,2.00
2019-04-28T11:25:48.347Z,2.40
2019-04-28T11:28:17.057Z,2.50
2019-04-28T11:30:46.054Z,3.07
2019-04-28T11:33:22.318Z,1.23
2019-04-28T11:35:51.747Z,1.17
2019-04-28T11:38:20.423Z,1.40
2019-04-28T11:40:49.126Z,1.63
2019-04-28T11:43:17.816Z,1.50
2019-04-28T11:45:46.493Z,1.33
2019-04-28T11:48:15.432Z,1.90
2019-04-28T11:50:44.137Z,1.40
2019-04-28T11:53:12.851Z,1.97
2019-04-28T11:55:41.526Z,1.50
2019-04-28T11:58:10.408Z,1.83
2019-04-28T12:00:39.083Z,1.60
2019-04-28T12:03:07.792Z,2.40
2019-04-28T12:05:40.796Z,2.73
2019-04-28T12:08:09.486Z,2.23
2019-04-28T12:10:45.854Z,2.70
2019-04-28T12:13:25.179Z,2.27
2019-04-28T12:16:10.835Z,4.70
2019-04-28T12:18:41.077Z,3.10
2019-04-28T12:21:09.748Z,2.93
2019-04-28T12:23:38.496Z,3.43
2019-04-28T12:26:07.369Z,3.07
2019-04-28T12:28:36.067Z,3.23
2019-04-28T12:31:04.736Z,3.20
2019-04-28T12:33:33.447Z,2.93
2019-04-28T12:36:02.131Z,2.63
2019-04-28T12:38:31.375Z,2.67
2019-04-28T12:41:00.052Z,2.40
2019-04-28T12:43:28.717Z,3.10
2019-04-28T12:45:57.415Z,2.60
2019-04-28T12:48:26.116Z,3.27
2019-04-28T12:50:54.779Z,2.53
2019-04-28T12:53:23.575Z,3.20
2019-04-28T12:55:52.253Z,2.40
2019-04-28T12:58:20.962Z,3.13
2019-04-28T13:00:53.695Z,2.90
2019-04-28T13:03:33.391Z,2.40
2019-04-28T13:06:05.780Z,2.67
2019-04-28T13:08:34.040Z,2.83
2019-04-28T13:11:02.876Z,1.90
2019-04-28T13:13:31.530Z,2.37
2019-04-28T13:16:00.212Z,1.80
2019-04-28T13:18:28.914Z,2.20
2019-04-28T13:20:59.016Z,2.50
2019-04-28T13:23:27.862Z,1.83
2019-04-28T13:25:56.829Z,1.40
2019-04-28T13:28:25.570Z,2.47
2019-04-28T13:30:54.328Z,2.00
2019-04-28T13:33:23.022Z,1.30
2019-04-28T13:35:51.719Z,1.60
2019-04-28T13:38:20.467Z,1.63
2019-04-28T13:40:49.220Z,1.60
2019-04-28T13:43:17.922Z,1.13
2019-04-28T13:45:46.609Z,1.40
2019-04-28T13:48:15.421Z,1.10
2019-04-28T13:50:44.159Z,1.27
2019-04-28T13:53:13.110Z,1.70
2019-04-28T13:55:46.158Z,1.27
2019-04-28T13:58:16.653Z,1.40
2019-04-28T14:00:57.227Z,0.97
2019-04-28T14:03:39.534Z,1.30
2019-04-28T14:06:28.057Z,1.20
2019-04-28T14:08:49.164Z,1.80
2019-04-28T14:11:19.545Z,1.23
2019-04-28T14:13:48.272Z,1.70
2019-04-28T14:16:17.008Z,1.60
2019-04-28T14:18:45.788Z,1.70
2019-04-28T14:21:14.561Z,1.13
2019-04-28T14:23:43.330Z,1.33
2019-04-28T14:26:12.441Z,1.00
2019-04-28T14:28:41.161Z,1.10
2019-04-28T14:31:09.820Z,0.80
2019-04-28T14:33:38.562Z,0.80
2019-04-28T14:36:07.256Z,1.10
2019-04-28T14:38:36.002Z,0.80
2019-04-28T14:41:04.671Z,1.10
2019-04-28T14:43:33.364Z,0.90
2019-04-28T14:46:02.134Z,0.90
2019-04-28T14:48:30.887Z,1.20
2019-04-28T14:50:59.590Z,0.90
2019-04-28T14:53:28.353Z,0.83
2019-04-28T14:55:57.165Z,0.90
2019-04-28T14:58:25.921Z,1.10
2019-04-28T15:01:11.070Z,1.03
2019-04-28T15:03:41.395Z,0.80
2019-04-28T15:06:17.874Z,0.63
2019-04-28T15:08:48.134Z,0.70
2019-04-28T15:11:18.403Z,0.83
2019-04-28T15:13:47.461Z,0.70
2019-04-28T15:16:16.163Z,0.80
2019-04-28T15:18:44.866Z,0.63
2019-04-28T15:21:13.631Z,0.80
2019-04-28T15:23:42.610Z,0.70
2019-04-28T15:26:11.457Z,0.77
2019-04-28T15:28:40.195Z,0.77
2019-04-28T15:31:10.787Z,0.63
2019-04-28T15:33:39.597Z,1.47
2019-04-28T15:36:08.299Z,1.23
2019-04-28T15:38:36.986Z,1.20
2019-04-28T15:41:05.660Z,0.83
2019-04-28T15:43:34.711Z,1.00
2019-04-28T15:46:03.614Z,1.20
2019-04-28T15:48:32.315Z,0.97
2019-04-28T15:51:01.028Z,1.00
2019-04-28T15:53:30.283Z,0.77
2019-04-28T15:56:00.540Z,0.80
2019-04-28T15:58:31.184Z,1.50
2019-04-28T16:01:00.226Z,0.80
2019-04-28T16:03:28.894Z,0.93
2019-04-28T16:05:59.887Z,0.80
2019-04-28T16:08:28.068Z,1.10
2019-04-28T16:10:56.745Z,1.10
2019-04-28T16:13:25.593Z,0.63
2019-04-28T16:15:54.336Z,1.10
2019-04-28T16:18:23.036Z,2.30
2019-04-28T16:20:51.817Z,0.97
2019-04-28T16:23:20.521Z,0.93
2019-04-28T16:25:49.269Z,1.10
2019-04-28T16:28:17.945Z,0.90
2019-04-28T16:30:46.615Z,1.00
2019-04-28T16:33:15.331Z,1.20
2019-04-28T16:35:44.027Z,0.97
2019-04-28T16:38:12.824Z,1.37
2019-04-28T16:40:43.052Z,1.10
2019-04-28T16:43:11.984Z,1.22
2019-04-28T16:48:20.599Z,0.90
2019-04-28T16:50:49.285Z,1.30
2019-04-28T16:53:17.966Z,1.00
2019-04-28T16:55:48.258Z,0.87
2019-04-28T16:58:24.152Z,1.33
2019-04-28T17:00:57.182Z,0.93
2019-04-28T17:03:27.412Z,1.50
2019-04-28T17:05:56.131Z,1.03
2019-04-28T17:08:24.829Z,1.27
2019-04-28T17:10:53.496Z,1.00
2019-04-28T17:13:22.215Z,1.60
2019-04-28T17:15:50.966Z,1.47
2019-04-28T17:18:19.640Z,1.53
2019-04-28T17:20:48.355Z,1.30
2019-04-28T17:23:17.047Z,1.10
2019-04-28T17:25:45.773Z,0.80
2019-04-28T17:28:14.461Z,1.00
2019-04-28T17:30:43.431Z,1.60
2019-04-28T17:33:12.134Z,1.20
2019-04-28T17:35:40.847Z,1.40
2019-04-28T17:38:09.678Z,0.70
2019-04-28T17:40:40.830Z,1.07
2019-04-28T17:43:09.731Z,0.97
2019-04-28T17:45:38.940Z,1.50
2019-04-28T17:48:12.151Z,1.37
2019-04-28T17:50:41.081Z,1.27
2019-04-28T17:53:09.789Z,1.63
2019-04-28T17:55:39.056Z,1.60
2019-04-28T17:58:07.850Z,1.77
2019-04-28T18:00:55.907Z,1.30
2019-04-28T18:03:28.776Z,1.10
2019-04-28T18:06:17.665Z,1.40
2019-04-28T18:08:40.175Z,1.10
2019-04-28T18:11:08.911Z,1.10
2019-04-28T18:13:37.611Z,1.27
2019-04-28T18:16:24.961Z,1.10
2019-04-28T18:19:13.282Z,0.87
2019-04-28T18:21:42.034Z,0.93
2019-04-28T18:24:10.749Z,1.03
2019-04-28T18:26:39.480Z,1.17
2019-04-28T18:29:09.239Z,1.70
2019-04-28T18:31:56.119Z,1.67
2019-04-28T18:34:41.484Z,2.00
2019-04-28T18:37:11.735Z,3.23
2019-04-28T18:39:58.287Z,2.00
2019-04-28T18:42:28.549Z,2.23
2019-04-28T18:44:57.235Z,3.00
2019-04-28T18:47:25.932Z,3.07
2019-04-28T18:49:54.656Z,3.67
2019-04-28T18:52:23.318Z,4.20
2019-04-28T18:54:52.042Z,3.97
2019-04-28T18:57:20.711Z,3.73
2019-04-28T18:59:49.722Z,4.07
2019-04-28T19:02:22.866Z,3.67
2019-04-28T19:04:51.669Z,3.80
2019-04-28T19:07:28.181Z,3.77
2019-04-28T19:09:58.482Z,3.53
2019-04-28T19:12:31.331Z,4.13
2019-04-28T19:15:17.568Z,3.40
2019-04-28T19:17:47.878Z,3.97
2019-04-28T19:20:16.589Z,3.20
2019-04-28T19:22:46.489Z,3.60
2019-04-28T19:25:15.213Z,4.10
2019-04-28T19:27:43.970Z,5.40
2019-04-28T19:30:12.994Z,4.23
2019-04-28T19:32:43.508Z,4.20
2019-04-28T19:35:12.219Z,3.43
2019-04-28T19:37:40.996Z,4.60
2019-04-28T19:40:10.362Z,4.30
2019-04-28T19:42:39.064Z,4.17
2019-04-28T19:45:12.031Z,3.23
2019-04-28T19:47:40.898Z,3.03
2019-04-28T19:50:10.007Z,4.20
2019-04-28T19:52:40.903Z,3.10
2019-04-28T19:55:16.980Z,3.70
2019-04-28T19:57:53.293Z,3.13
2019-04-28T20:00:35.611Z,4.20
2019-04-28T20:03:04.284Z,3.70
2019-04-28T20:05:33.204Z,3.57
2019-04-28T20:08:01.895Z,3.40
2019-04-28T20:10:30.616Z,3.40
2019-04-28T20:12:59.359Z,4.30
2019-04-28T20:15:28.053Z,3.70
2019-04-28T20:17:56.904Z,3.77
2019-04-28T20:20:25.620Z,3.70
2019-04-28T20:22:54.305Z,3.70
2019-04-28T20:25:23.015Z,4.03
2019-04-28T20:27:51.790Z,3.60
2019-04-28T20:30:20.500Z,4.47
2019-04-28T20:32:49.238Z,3.50
2019-04-28T20:35:19.523Z,3.20
2019-04-28T20:37:49.775Z,3.30
2019-04-28T20:40:22.901Z,3.60
2019-04-28T20:42:53.131Z,3.87
2019-04-28T20:45:21.877Z,4.20
2019-04-28T20:47:50.586Z,4.00
2019-04-28T20:50:19.316Z,3.80
2019-04-28T20:52:48.215Z,3.53
2019-04-28T20:55:16.932Z,4.23
2019-04-28T20:57:45.849Z,3.20
2019-04-28T21:00:14.789Z,3.30
2019-04-28T21:02:43.790Z,3.67
2019-04-28T21:05:12.522Z,3.80
2019-04-28T21:07:41.417Z,3.80
2019-04-28T21:10:10.555Z,3.33
2019-04-28T21:12:39.211Z,3.40
2019-04-28T21:15:08.891Z,2.80
2019-04-28T21:17:37.789Z,4.00
2019-04-28T21:20:07.384Z,2.73
2019-04-28T21:22:36.070Z,3.07
2019-04-28T21:25:06.127Z,4.23
2019-04-28T21:27:35.008Z,3.10
2019-04-28T21:30:05.472Z,3.80
2019-04-28T21:32:34.188Z,3.20
2019-04-28T21:35:02.898Z,3.57
2019-04-28T21:37:31.570Z,3.90
2019-04-28T21:40:00.271Z,4.27
2019-04-28T21:42:30.582Z,3.53
2019-04-28T21:45:00.810Z,4.10
2019-04-28T21:47:33.635Z,3.87
2019-04-28T21:50:02.305Z,3.70
2019-04-28T21:52:31.022Z,4.57
2019-04-28T21:54:59.699Z,3.57
2019-04-28T21:57:28.393Z,4.30
2019-04-28T21:59:57.186Z,3.73
2019-04-28T22:02:25.909Z,4.30
2019-04-28T22:04:54.618Z,4.00
2019-04-28T22:07:23.390Z,4.20
2019-04-28T22:09:52.053Z,4.60
2019-04-28T22:12:20.756Z,4.20
2019-04-28T22:14:49.633Z,4.90
2019-04-28T22:17:18.378Z,5.10
2019-04-28T22:19:47.154Z,4.20
2019-04-28T22:22:15.824Z,4.93
2019-04-28T22:24:46.142Z,4.70
2019-04-28T22:27:15.816Z,4.40
2019-04-28T22:29:44.495Z,4.60
2019-04-28T22:32:13.316Z,4.30
2019-04-28T22:34:41.986Z,4.37
2019-04-28T22:37:10.995Z,5.63
2019-04-28T22:39:39.807Z,5.40
2019-04-28T22:42:08.525Z,4.83
2019-04-28T22:44:37.264Z,4.90
2019-04-28T22:47:05.936Z,6.47
2019-04-28T22:49:34.643Z,5.40
2019-04-28T22:52:03.323Z,5.10
2019-04-28T22:54:33.590Z,5.80
2019-04-28T22:57:03.834Z,6.10
2019-04-28T22:59:34.109Z,5.93
2019-04-28T23:02:04.458Z,5.83
2019-04-28T23:04:37.637Z,6.60
2019-04-28T23:07:06.791Z,7.33
2019-04-28T23:09:35.455Z,5.90
2019-04-28T23:12:05.276Z,6.50
2019-04-28T23:14:34.070Z,6.07
2019-04-28T23:17:03.138Z,5.80
2019-04-28T23:19:33.419Z,6.10
2019-04-28T23:22:09.718Z,6.60
2019-04-28T23:24:38.387Z,6.07
2019-04-28T23:27:07.053Z,6.07
2019-04-28T23:29:36.191Z,5.10
2019-04-28T23:32:05.074Z,6.13
2019-04-28T23:34:36.003Z,6.50
2019-04-28T23:37:04.413Z,4.97
2019-04-28T23:39:33.119Z,6.53
2019-04-28T23:42:03.358Z,7.67
2019-04-28T23:44:32.047Z,7.67
2019-04-28T23:47:02.217Z,7.03
2019-04-28T23:49:31.076Z,7.30
2019-04-28T23:52:17.834Z,7.57
2019-04-28T23:55:00.119Z,7.43
2019-04-28T23:57:29.060Z,7.40
2019-04-28T23:59:57.734Z,6.40
